Aviation Digital Data Service (ADDS)

Output produced by METARs form (0045 UTC 24 May 2022)
found at http://www.aviationweather.gov/metar/data/
 
VCBI 232010Z 24008KT 200V270 9999 SCT016 FEW019CB 28/25 Q1006 NOSIG RMK CB SE/S
TAF COR VCBI 232300Z 2400/2506 22012KT 9999 SCT016 TX31/2407Z TN27/2500Z 
     PROB40 
     TEMPO 2400/2407 7000 -TSRA/SHRA BKN016 FEW020CB